createdAt,value
2022-07-28T00:01:16.471Z,96963.19
2022-07-28T00:03:49.083Z,96960.00
2022-07-28T00:06:17.776Z,96966.63
2022-07-28T00:08:47.126Z,96962.66
2022-07-28T00:11:15.265Z,96962.13
2022-07-28T00:13:43.369Z,96955.81
2022-07-28T00:16:11.521Z,96960.81
2022-07-28T00:18:39.649Z,96956.84
2022-07-28T00:21:07.854Z,96956.31
2022-07-28T00:23:39.575Z,96955.09
2022-07-28T00:26:10.035Z,96954.63
2022-07-28T00:28:38.123Z,96950.34
2022-07-28T00:31:08.482Z,96944.34
2022-07-28T00:33:40.147Z,96943.81
2022-07-28T00:36:10.267Z,96949.44
2022-07-28T00:38:40.891Z,96940.81
2022-07-28T00:41:13.541Z,96935.63
2022-07-28T00:43:42.925Z,96931.97
2022-07-28T00:46:11.072Z,96932.94
2022-07-28T00:48:40.031Z,96941.44
2022-07-28T00:51:09.394Z,96939.53
2022-07-28T00:53:37.754Z,96931.38
2022-07-28T00:56:07.083Z,96935.94
2022-07-28T00:58:37.274Z,96935.47
2022-07-28T01:01:06.068Z,96930.03
2022-07-28T01:03:35.079Z,96929.50
2022-07-28T01:06:07.739Z,96924.38
2022-07-28T01:08:44.863Z,96929.03
2022-07-28T01:11:18.198Z,96930.53
2022-07-28T01:13:51.868Z,96931.47
2022-07-28T01:16:22.645Z,96924.78
2022-07-28T01:18:57.917Z,96913.81
2022-07-28T01:21:28.034Z,96923.81
2022-07-28T01:24:11.211Z,96916.78
2022-07-28T01:26:49.685Z,96915.97
2022-07-28T01:29:23.694Z,96923.81
2022-07-28T01:31:58.139Z,96916.31
2022-07-28T01:34:36.163Z,96917.28
2022-07-28T01:37:07.414Z,96922.00
2022-07-28T01:39:37.567Z,96916.56
2022-07-28T01:42:07.249Z,96916.38
2022-07-28T01:44:39.008Z,96918.28
2022-07-28T01:47:09.284Z,96914.78
2022-07-28T01:49:38.188Z,96901.44
2022-07-28T01:52:08.159Z,96904.16
2022-07-28T01:54:39.008Z,96911.41
2022-07-28T01:57:10.911Z,96896.69
2022-07-28T01:59:39.898Z,96898.97
2022-07-28T02:02:10.411Z,96896.25
2022-07-28T02:04:40.982Z,96886.50
2022-07-28T02:07:10.153Z,96885.53
2022-07-28T02:09:38.668Z,96887.69
2022-07-28T02:12:07.474Z,96884.59
2022-07-28T02:14:36.948Z,96884.06
2022-07-28T02:17:08.837Z,96884.97
2022-07-28T02:19:39.335Z,96888.03
2022-07-28T02:22:08.265Z,96881.09
2022-07-28T02:24:36.954Z,96877.03
2022-07-28T02:27:08.071Z,96873.44
2022-07-28T02:29:51.460Z,96871.50
2022-07-28T02:32:24.114Z,96873.66
2022-07-28T02:35:00.279Z,96869.91
2022-07-28T02:37:33.729Z,96870.25
2022-07-28T02:40:02.766Z,96862.72
2022-07-28T02:42:33.534Z,96874.34
2022-07-28T02:45:04.542Z,96867.34
2022-07-28T02:47:34.534Z,96881.47
2022-07-28T02:50:05.826Z,96883.84
2022-07-28T02:52:34.691Z,96878.41
2022-07-28T02:55:04.017Z,96874.56
2022-07-28T02:57:32.404Z,96869.91
2022-07-28T03:00:00.634Z,96872.22
2022-07-28T03:02:30.849Z,96876.84
2022-07-28T03:05:01.877Z,96874.34
2022-07-28T03:07:33.386Z,96874.69
2022-07-28T03:10:01.815Z,96880.25
2022-07-28T03:12:30.182Z,96874.25
2022-07-28T03:14:58.292Z,96889.50
2022-07-28T03:17:26.382Z,96886.47
2022-07-28T03:19:54.503Z,96889.50
2022-07-28T03:22:22.562Z,96886.59
2022-07-28T03:24:53.258Z,96888.38
2022-07-28T03:27:23.226Z,96893.38
2022-07-28T03:29:54.740Z,96893.59
2022-07-28T03:32:24.132Z,96893.81
2022-07-28T03:34:52.521Z,96897.00
2022-07-28T03:37:26.526Z,96898.03
2022-07-28T03:39:58.426Z,96900.63
2022-07-28T03:42:27.624Z,96901.31
2022-07-28T03:44:56.166Z,96900.38
2022-07-28T03:47:25.161Z,96904.91
2022-07-28T03:49:53.213Z,96899.25
2022-07-28T03:52:21.266Z,96903.09
2022-07-28T03:54:49.398Z,96896.66
2022-07-28T03:57:18.876Z,96899.00
2022-07-28T03:59:46.985Z,96894.03
2022-07-28T04:04:43.285Z,96900.41
2022-07-28T04:07:11.782Z,96899.94
2022-07-28T04:09:39.881Z,96899.59
2022-07-28T04:12:08.771Z,96900.41
2022-07-28T04:14:38.138Z,96896.41
2022-07-28T04:17:06.332Z,96895.63
2022-07-28T04:19:34.485Z,96908.88
2022-07-28T04:22:02.599Z,96908.06
2022-07-28T04:24:30.686Z,96899.47
2022-07-28T04:26:58.993Z,96904.09
2022-07-28T04:29:27.649Z,96898.56
2022-07-28T04:31:57.275Z,96897.66
2022-07-28T04:34:25.382Z,96901.50
2022-07-28T04:36:53.390Z,96903.84
2022-07-28T04:39:21.618Z,96903.41
2022-07-28T04:41:50.941Z,96903.09
2022-07-28T04:44:20.097Z,96903.53
2022-07-28T04:46:48.121Z,96907.94
2022-07-28T04:49:17.538Z,96905.56
2022-07-28T04:51:49.388Z,96913.34
2022-07-28T04:54:19.213Z,96904.00
2022-07-28T04:56:49.955Z,96911.00
2022-07-28T04:59:18.983Z,96899.22
2022-07-28T05:01:48.976Z,96906.69
2022-07-28T05:04:19.037Z,96916.06
2022-07-28T05:06:47.409Z,96911.25
2022-07-28T05:09:15.472Z,96910.66
2022-07-28T05:11:43.632Z,96916.69
2022-07-28T05:14:12.645Z,96914.41
2022-07-28T05:16:41.625Z,96910.56
2022-07-28T05:19:10.076Z,96914.41
2022-07-28T05:21:39.499Z,96907.16
2022-07-28T05:24:08.681Z,96906.03
2022-07-28T05:26:36.927Z,96905.25
2022-07-28T05:29:05.078Z,96915.91
2022-07-28T05:31:33.192Z,96909.22
2022-07-28T05:34:01.611Z,96917.13
2022-07-28T05:36:29.928Z,96914.19
2022-07-28T05:38:59.416Z,96918.94
2022-07-28T05:41:28.116Z,96916.66
2022-07-28T05:43:57.536Z,96919.19
2022-07-28T05:46:25.834Z,96916.25
2022-07-28T05:48:53.919Z,96916.91
2022-07-28T05:51:22.016Z,96903.78
2022-07-28T05:53:50.051Z,96914.88
2022-07-28T05:56:19.427Z,96917.84
2022-07-28T05:58:47.458Z,96921.44
2022-07-28T06:01:15.579Z,96927.75
2022-07-28T06:03:43.680Z,96928.66
2022-07-28T06:06:16.051Z,96922.56
2022-07-28T06:08:46.084Z,96921.88
2022-07-28T06:11:22.331Z,96925.94
2022-07-28T06:13:53.304Z,96925.34
2022-07-28T06:16:23.073Z,96934.09
2022-07-28T06:18:52.645Z,96924.16
2022-07-28T06:21:21.039Z,96924.69
2022-07-28T06:23:49.147Z,96929.09
2022-07-28T06:26:17.554Z,96928.44
2022-07-28T06:28:46.049Z,96924.53
2022-07-28T06:31:16.034Z,96932.50
2022-07-28T06:33:44.265Z,96931.78
2022-07-28T06:36:13.005Z,96930.31
2022-07-28T06:38:41.192Z,96930.88
2022-07-28T06:41:09.348Z,96925.84
2022-07-28T06:43:39.201Z,96928.31
2022-07-28T06:46:07.708Z,96926.94
2022-07-28T06:48:39.670Z,96926.38
2022-07-28T06:51:08.272Z,96929.63
2022-07-28T06:53:36.703Z,96939.03
2022-07-28T06:56:06.605Z,96935.72
2022-07-28T06:58:35.947Z,96940.91
2022-07-28T07:01:08.032Z,96935.56
2022-07-28T07:03:37.902Z,96931.81
2022-07-28T07:06:06.118Z,96925.78
2022-07-28T07:08:34.892Z,96925.19
2022-07-28T07:11:20.764Z,96918.34
2022-07-28T07:13:49.375Z,96922.38
2022-07-28T07:16:18.020Z,96918.72
2022-07-28T07:18:48.382Z,96921.97
2022-07-28T07:21:16.736Z,96920.56
2022-07-28T07:23:44.885Z,96919.16
2022-07-28T07:26:13.470Z,96924.69
2022-07-28T07:28:42.520Z,96914.88
2022-07-28T07:31:11.153Z,96919.94
2022-07-28T07:33:39.604Z,96920.56
2022-07-28T07:36:15.330Z,96917.13
2022-07-28T07:38:45.567Z,96908.31
2022-07-28T07:41:14.452Z,96907.63
2022-07-28T07:43:47.338Z,96912.81
2022-07-28T07:46:16.413Z,96906.78
2022-07-28T07:48:44.774Z,96900.25
2022-07-28T07:51:15.728Z,96906.56
2022-07-28T07:53:46.470Z,96897.41
2022-07-28T07:56:15.884Z,96889.09
2022-07-28T07:58:44.083Z,96897.34
2022-07-28T08:01:19.117Z,96896.28
2022-07-28T08:03:50.014Z,96901.47
2022-07-28T08:06:26.624Z,96897.22
2022-07-28T08:08:56.455Z,96899.59
2022-07-28T08:11:30.858Z,96890.47
2022-07-28T08:13:59.112Z,96891.75
2022-07-28T08:16:27.492Z,96899.38
2022-07-28T08:18:59.223Z,96899.50
2022-07-28T08:21:29.375Z,96897.22
2022-07-28T08:23:58.069Z,96898.09
2022-07-28T08:26:28.846Z,96891.19
2022-07-28T08:28:56.986Z,96889.41
2022-07-28T08:31:25.228Z,96887.94
2022-07-28T08:33:56.545Z,96902.00
2022-07-28T08:36:25.006Z,96892.38
2022-07-28T08:38:54.820Z,96900.38
2022-07-28T08:41:33.517Z,96898.56
2022-07-28T08:44:03.967Z,96899.06
2022-07-28T08:46:36.188Z,96891.00
2022-07-28T08:49:09.491Z,96892.56
2022-07-28T08:51:38.982Z,96889.97
2022-07-28T08:54:10.771Z,96889.69
2022-07-28T08:56:47.970Z,96882.41
2022-07-28T08:59:16.792Z,96887.91
2022-07-28T09:01:45.203Z,96879.81
2022-07-28T09:04:14.311Z,96884.22
2022-07-28T09:06:43.322Z,96878.88
2022-07-28T09:09:13.284Z,96882.13
2022-07-28T09:11:41.539Z,96880.66
2022-07-28T09:14:09.657Z,96879.19
2022-07-28T09:16:39.038Z,96883.25
2022-07-28T09:19:07.070Z,96878.72
2022-07-28T09:21:35.210Z,96882.00
2022-07-28T09:24:03.328Z,96876.97
2022-07-28T09:26:32.976Z,96882.19
2022-07-28T09:29:02.429Z,96886.16
2022-07-28T09:31:30.783Z,96876.75
2022-07-28T09:34:04.256Z,96872.97
2022-07-28T09:36:39.921Z,96869.16
2022-07-28T09:39:08.128Z,96870.31
2022-07-28T09:41:49.413Z,96876.69
2022-07-28T09:44:20.484Z,96875.19
2022-07-28T09:46:49.144Z,96863.09
2022-07-28T09:49:17.867Z,96863.16
2022-07-28T09:52:00.796Z,96867.59
2022-07-28T09:54:29.060Z,96862.56
2022-07-28T09:56:58.578Z,96848.91
2022-07-28T09:59:27.096Z,96847.78
2022-07-28T10:02:00.995Z,96843.19
2022-07-28T10:04:31.796Z,96841.66
2022-07-28T10:07:03.999Z,96850.00
2022-07-28T10:09:32.470Z,96845.66
2022-07-28T10:15:31.297Z,96860.66
2022-07-28T10:17:59.667Z,96840.31
2022-07-28T10:20:28.396Z,96842.63
2022-07-28T10:23:00.310Z,96845.88
2022-07-28T10:25:31.452Z,96846.31
2022-07-28T10:28:00.548Z,96837.34
2022-07-28T10:30:31.631Z,96839.38
2022-07-28T10:33:00.882Z,96835.44
2022-07-28T10:35:29.144Z,96832.72
2022-07-28T10:38:00.321Z,96839.81
2022-07-28T10:40:29.891Z,96824.16
2022-07-28T10:42:58.028Z,96821.03
2022-07-28T10:45:48.247Z,96825.72
2022-07-28T10:48:16.667Z,96821.84
2022-07-28T10:50:45.436Z,96833.63
2022-07-28T10:53:26.852Z,96825.00
2022-07-28T10:55:59.797Z,96824.25
2022-07-28T10:58:38.328Z,96817.59
2022-07-28T11:01:17.125Z,96809.41
2022-07-28T11:03:56.296Z,96812.94
2022-07-28T11:06:26.517Z,96820.03
2022-07-28T11:08:55.861Z,96825.91
2022-07-28T11:11:46.087Z,96818.84
2022-07-28T11:14:33.661Z,96815.72
2022-07-28T11:17:23.931Z,96811.41
2022-07-28T11:20:16.750Z,96805.53
2022-07-28T11:22:44.405Z,96811.44
2022-07-28T11:25:21.816Z,96820.47
2022-07-28T11:28:01.028Z,96809.06
2022-07-28T11:30:51.231Z,96814.16
2022-07-28T11:33:20.530Z,96809.47
2022-07-28T11:35:58.495Z,96798.13
2022-07-28T11:38:27.336Z,96805.16
2022-07-28T11:40:57.224Z,96794.53
2022-07-28T11:43:35.743Z,96796.09
2022-07-28T11:46:37.620Z,96796.50
2022-07-28T11:49:26.767Z,96800.81
2022-07-28T11:52:12.838Z,96808.69
2022-07-28T11:54:44.007Z,96802.41
2022-07-28T11:57:12.164Z,96791.75
2022-07-28T11:59:47.307Z,96790.59
2022-07-28T12:02:19.437Z,96799.22
2022-07-28T12:04:55.892Z,96787.41
2022-07-28T12:07:32.646Z,96795.63
2022-07-28T12:10:01.389Z,96786.59
2022-07-28T12:12:30.175Z,96798.00
2022-07-28T12:15:02.101Z,96794.47
2022-07-28T12:17:59.218Z,96784.22
2022-07-28T12:20:31.842Z,96783.78
2022-07-28T12:23:03.656Z,96787.28
2022-07-28T12:25:31.865Z,96781.78
2022-07-28T12:28:02.209Z,96782.91
2022-07-28T12:30:32.684Z,96772.69
2022-07-28T12:33:00.752Z,96777.78
2022-07-28T12:35:28.894Z,96765.16
2022-07-28T12:37:57.041Z,96765.06
2022-07-28T12:40:30.737Z,96760.31
2022-07-28T12:42:58.796Z,96755.25
2022-07-28T12:45:28.512Z,96756.81
2022-07-28T12:47:56.577Z,96751.69
2022-07-28T12:50:24.654Z,96740.25
2022-07-28T12:53:03.501Z,96740.25
2022-07-28T12:55:33.039Z,96746.06
2022-07-28T12:58:01.343Z,96741.25
2022-07-28T13:00:31.247Z,96742.06
2022-07-28T13:03:01.092Z,96738.94
2022-07-28T13:05:54.646Z,96737.69
2022-07-28T13:08:23.486Z,96731.72
2022-07-28T13:10:57.007Z,96734.78
2022-07-28T13:13:26.971Z,96737.06
2022-07-28T13:16:13.629Z,96735.28
2022-07-28T13:18:42.394Z,96728.00
2022-07-28T13:21:11.313Z,96733.09
2022-07-28T13:23:39.738Z,96724.84
2022-07-28T13:26:09.200Z,96731.81
2022-07-28T13:28:37.458Z,96727.88
2022-07-28T13:31:05.567Z,96731.34
2022-07-28T13:33:33.659Z,96725.31
2022-07-28T13:36:02.516Z,96723.59
2022-07-28T13:38:31.215Z,96720.59
2022-07-28T13:40:59.259Z,96712.28
2022-07-28T13:43:35.912Z,96705.66
2022-07-28T13:46:05.429Z,96713.34
2022-07-28T13:48:35.954Z,96712.84
2022-07-28T13:51:04.275Z,96709.09
2022-07-28T13:53:32.774Z,96709.31
2022-07-28T13:56:00.870Z,96707.50
2022-07-28T13:58:30.587Z,96711.53
2022-07-28T14:00:58.963Z,96709.38
2022-07-28T14:03:27.342Z,96709.06
2022-07-28T14:05:55.548Z,96700.22
2022-07-28T14:08:25.448Z,96703.06
2022-07-28T14:10:56.304Z,96708.97
2022-07-28T14:13:31.315Z,96700.41
2022-07-28T14:16:02.056Z,96699.91
2022-07-28T14:18:33.537Z,96700.63
2022-07-28T14:21:03.249Z,96697.44
2022-07-28T14:23:31.317Z,96694.09
2022-07-28T14:26:25.073Z,96693.88
2022-07-28T14:28:48.629Z,96689.69
2022-07-28T14:31:18.252Z,96694.53
2022-07-28T14:33:52.211Z,96682.94
2022-07-28T14:36:22.148Z,96676.06
2022-07-28T14:38:53.691Z,96672.13
2022-07-28T14:41:22.473Z,96675.81
2022-07-28T14:43:50.499Z,96675.56
2022-07-28T14:46:21.886Z,96676.72
2022-07-28T14:48:50.527Z,96674.25
2022-07-28T14:51:18.657Z,96666.31
2022-07-28T14:53:51.881Z,96671.84
2022-07-28T14:56:20.268Z,96659.53
2022-07-28T14:58:48.294Z,96668.50
2022-07-28T15:01:16.393Z,96666.66
2022-07-28T15:03:45.816Z,96666.97
2022-07-28T15:06:13.906Z,96656.03
2022-07-28T15:08:41.930Z,96652.53
2022-07-28T15:11:10.272Z,96655.72
2022-07-28T15:13:38.277Z,96654.44
2022-07-28T15:16:07.242Z,96658.47
2022-07-28T15:18:35.785Z,96654.56
2022-07-28T15:21:06.602Z,96651.25
2022-07-28T15:23:34.677Z,96645.44
2022-07-28T15:26:02.887Z,96646.84
2022-07-28T15:28:31.469Z,96643.34
2022-07-28T15:30:59.556Z,96638.78
2022-07-28T15:33:27.731Z,96643.00
2022-07-28T15:36:00.047Z,96647.78
2022-07-28T15:38:31.924Z,96645.44
2022-07-28T15:41:00.295Z,96645.34
2022-07-28T15:43:28.623Z,96645.94
2022-07-28T15:45:57.668Z,96638.31
2022-07-28T15:48:26.015Z,96631.47
2022-07-28T15:50:54.164Z,96632.19
2022-07-28T15:53:22.426Z,96636.81
2022-07-28T15:55:52.121Z,96625.03
2022-07-28T15:58:20.550Z,96620.38
2022-07-28T16:00:48.827Z,96608.09
2022-07-28T16:03:17.199Z,96610.06
2022-07-28T16:05:49.429Z,96605.69
2022-07-28T16:08:18.606Z,96613.97
2022-07-28T16:10:53.153Z,96611.31
2022-07-28T16:13:33.314Z,96607.44
2022-07-28T16:16:36.271Z,96619.41
2022-07-28T16:19:04.625Z,96626.00
2022-07-28T16:21:32.722Z,96621.88
2022-07-28T16:24:00.783Z,96616.00
2022-07-28T16:26:30.229Z,96628.00
2022-07-28T16:28:58.273Z,96622.59
2022-07-28T16:31:27.966Z,96612.88
2022-07-28T16:33:56.894Z,96620.22
2022-07-28T16:36:25.038Z,96620.91
2022-07-28T16:38:53.427Z,96622.81
2022-07-28T16:41:21.545Z,96625.25
2022-07-28T16:43:51.000Z,96621.22
2022-07-28T16:46:20.978Z,96623.16
2022-07-28T16:48:49.524Z,96623.81
2022-07-28T16:51:17.724Z,96625.84
2022-07-28T16:53:49.692Z,96628.38
2022-07-28T16:56:18.306Z,96633.16
2022-07-28T16:58:46.695Z,96629.72
2022-07-28T17:01:16.691Z,96627.28
2022-07-28T17:03:47.610Z,96633.63
2022-07-28T17:06:15.756Z,96634.69
2022-07-28T17:08:43.840Z,96645.81
2022-07-28T17:11:11.864Z,96641.91
2022-07-28T17:13:44.916Z,96629.84
2022-07-28T17:16:13.606Z,96642.13
2022-07-28T17:18:43.123Z,96641.97
2022-07-28T17:21:11.272Z,96640.44
2022-07-28T17:23:41.551Z,96640.44
2022-07-28T17:27:30.670Z,96633.16
2022-07-28T17:28:58.394Z,96645.44
2022-07-28T17:31:26.564Z,96630.22
2022-07-28T17:33:56.089Z,96639.97
2022-07-28T17:36:24.142Z,96636.00
2022-07-28T17:38:52.228Z,96635.56
2022-07-28T17:41:20.967Z,96631.22
2022-07-28T17:44:13.783Z,96633.06
2022-07-28T17:46:42.204Z,96636.66
2022-07-28T17:49:12.304Z,96637.91
2022-07-28T17:51:41.827Z,96636.41
2022-07-28T17:54:13.673Z,96631.75
2022-07-28T17:56:41.999Z,96647.56
2022-07-28T17:59:10.468Z,96647.56
2022-07-28T18:01:42.389Z,96652.34
2022-07-28T18:04:15.032Z,96653.16
2022-07-28T18:06:45.869Z,96650.03
2022-07-28T18:09:14.368Z,96657.97
2022-07-28T18:11:55.967Z,96655.56
2022-07-28T18:14:26.593Z,96662.78
2022-07-28T18:16:54.902Z,96665.97
2022-07-28T18:19:24.357Z,96669.16
2022-07-28T18:21:52.443Z,96677.81
2022-07-28T18:24:22.250Z,96679.94
2022-07-28T18:26:51.483Z,96681.47
2022-07-28T18:29:21.048Z,96684.31
2022-07-28T18:31:50.308Z,96693.41
2022-07-28T18:34:18.790Z,96696.16
2022-07-28T18:36:48.626Z,96690.25
2022-07-28T18:39:19.000Z,96689.91
2022-07-28T18:41:47.972Z,96698.22
2022-07-28T18:44:17.809Z,96698.69
2022-07-28T18:46:46.166Z,96698.72
2022-07-28T18:49:14.508Z,96705.88
2022-07-28T18:51:45.155Z,96703.91
2022-07-28T18:54:20.105Z,96712.19
2022-07-28T18:56:53.066Z,96717.72
2022-07-28T18:59:21.198Z,96714.22
2022-07-28T19:01:49.283Z,96711.47
2022-07-28T19:04:17.725Z,96713.09
2022-07-28T19:06:46.008Z,96712.34
2022-07-28T19:09:15.507Z,96710.03
2022-07-28T19:11:46.515Z,96710.88
2022-07-28T19:14:15.412Z,96706.19
2022-07-28T19:16:44.133Z,96715.66
2022-07-28T19:19:12.973Z,96710.94
2022-07-28T19:21:43.241Z,96711.75
2022-07-28T19:24:12.176Z,96713.38
2022-07-28T19:26:42.064Z,96719.66
2022-07-28T19:29:10.183Z,96726.38
2022-07-28T19:31:38.639Z,96730.69
2022-07-28T19:34:07.198Z,96737.03
2022-07-28T19:36:37.724Z,96739.38
2022-07-28T19:39:05.801Z,96740.19
2022-07-28T19:41:35.063Z,96731.56
2022-07-28T19:44:04.743Z,96736.28
2022-07-28T19:46:32.909Z,96728.03
2022-07-28T19:49:01.099Z,96732.78
2022-07-28T19:51:29.249Z,96730.03
2022-07-28T19:53:59.442Z,96722.97
2022-07-28T19:56:31.195Z,96726.91
2022-07-28T19:58:59.979Z,96734.41
2022-07-28T20:01:29.565Z,96733.25
2022-07-28T20:04:01.391Z,96737.16
2022-07-28T20:06:32.599Z,96729.31
2022-07-28T20:09:00.927Z,96731.31
2022-07-28T20:11:28.978Z,96731.72
2022-07-28T20:13:57.040Z,96724.63
2022-07-28T20:16:25.563Z,96724.66
2022-07-28T20:18:56.913Z,96735.25
2022-07-28T20:21:26.420Z,96723.50
2022-07-28T20:23:55.873Z,96730.97
2022-07-28T20:26:25.892Z,96738.78
2022-07-28T20:28:54.422Z,96736.44
2022-07-28T20:31:22.662Z,96731.72
2022-07-28T20:33:50.950Z,96738.00
2022-07-28T20:36:20.484Z,96736.47
2022-07-28T20:38:48.520Z,96736.44
2022-07-28T20:41:17.485Z,96738.03
2022-07-28T20:43:45.856Z,96743.50
2022-07-28T20:46:13.998Z,96742.72
2022-07-28T20:48:42.133Z,96735.69
2022-07-28T20:51:10.746Z,96745.06
2022-07-28T20:53:40.214Z,96754.50
2022-07-28T20:56:08.327Z,96745.88
2022-07-28T20:58:36.336Z,96759.19
2022-07-28T21:01:04.674Z,96756.84
2022-07-28T21:03:32.889Z,96754.91
2022-07-28T21:06:00.892Z,96753.72
2022-07-28T21:08:29.034Z,96748.97
2022-07-28T21:10:59.855Z,96754.88
2022-07-28T21:13:28.031Z,96758.75
2022-07-28T21:15:56.053Z,96756.84
2022-07-28T21:18:24.131Z,96756.78
2022-07-28T21:20:52.271Z,96762.66
2022-07-28T21:23:20.391Z,96768.94
2022-07-28T21:25:51.302Z,96773.22
2022-07-28T21:28:38.175Z,96770.06
2022-07-28T21:31:06.326Z,96774.78
2022-07-28T21:33:34.525Z,96777.91
2022-07-28T21:36:02.672Z,96781.03
2022-07-28T21:38:30.725Z,96788.09
2022-07-28T21:40:58.796Z,96798.28
2022-07-28T21:43:28.592Z,96798.28
2022-07-28T21:45:56.755Z,96795.13
2022-07-28T21:48:25.095Z,96797.47
2022-07-28T21:50:53.841Z,96801.38
2022-07-28T21:53:22.032Z,96801.78
2022-07-28T21:55:50.444Z,96803.75
2022-07-28T21:58:18.487Z,96813.56
2022-07-28T22:00:48.037Z,96816.66
2022-07-28T22:03:16.188Z,96822.53
2022-07-28T22:05:44.483Z,96827.25
2022-07-28T22:08:12.488Z,96840.97
2022-07-28T22:10:40.511Z,96849.56
2022-07-28T22:13:08.597Z,96856.22
2022-07-28T22:15:36.805Z,96848.38
2022-07-28T22:18:31.588Z,96862.47
2022-07-28T22:20:59.799Z,96892.63
2022-07-28T22:23:29.026Z,96895.19
2022-07-28T22:25:58.102Z,96896.38
2022-07-28T22:28:29.527Z,96902.97
2022-07-28T22:30:58.508Z,96903.72
2022-07-28T22:33:26.677Z,96891.25
2022-07-28T22:35:56.058Z,96888.09
2022-07-28T22:38:24.563Z,96892.84
2022-07-28T22:40:52.635Z,96894.44
2022-07-28T22:43:20.694Z,96885.03
2022-07-28T22:45:51.364Z,96884.19
2022-07-28T22:48:19.742Z,96881.78
2022-07-28T22:50:47.841Z,96884.19
2022-07-28T22:53:17.295Z,96883.00
2022-07-28T22:55:45.367Z,96887.31
2022-07-28T22:58:13.374Z,96888.88
2022-07-28T23:00:41.492Z,96890.47
2022-07-28T23:03:10.003Z,96886.13
2022-07-28T23:05:41.482Z,96875.91
2022-07-28T23:08:09.555Z,96879.44
2022-07-28T23:10:40.264Z,96879.84
2022-07-28T23:16:13.691Z,96876.63
2022-07-28T23:18:42.116Z,96880.16
2022-07-28T23:21:10.438Z,96873.09
2022-07-28T23:23:38.824Z,96878.53
2022-07-28T23:26:09.290Z,96889.25
2022-07-28T23:28:37.302Z,96880.22
2022-07-28T23:31:05.720Z,96875.81
2022-07-28T23:33:55.884Z,96875.03
2022-07-28T23:36:26.710Z,96878.38
2022-07-28T23:38:56.713Z,96861.56
2022-07-28T23:41:26.814Z,96868.72
2022-07-28T23:43:54.909Z,96867.16
2022-07-28T23:46:23.433Z,96862.47
2022-07-28T23:48:51.739Z,96862.56
2022-07-28T23:51:21.234Z,96860.63
2022-07-28T23:53:54.347Z,96860.25
2022-07-28T23:56:25.912Z,96859.81
2022-07-28T23:58:53.852Z,96855.50
